sensor_id;sensor_type;location;lat;lon;timestamp;P1;durP1;ratioP1;P2;durP2;ratioP2
59314;SDS011;46521;50.160;20.802;2023-01-15T00:12:15;15.35;;;7.35;;
59314;SDS011;46521;50.160;20.802;2023-01-15T00:22:17;10.10;;;5.05;;
59314;SDS011;46521;50.160;20.802;2023-01-15T00:32:18;10.90;;;4.70;;
59314;SDS011;46521;50.160;20.802;2023-01-15T00:42:19;10.70;;;5.00;;
59314;SDS011;46521;50.160;20.802;2023-01-15T00:52:21;9.30;;;4.25;;
59314;SDS011;46521;50.160;20.802;2023-01-15T01:02:22;8.55;;;4.10;;
59314;SDS011;46521;50.160;20.802;2023-01-15T01:12:24;9.20;;;4.20;;
59314;SDS011;46521;50.160;20.802;2023-01-15T01:22:26;9.75;;;4.10;;
59314;SDS011;46521;50.160;20.802;2023-01-15T01:32:27;7.90;;;3.95;;
59314;SDS011;46521;50.160;20.802;2023-01-15T01:42:29;7.85;;;3.40;;
59314;SDS011;46521;50.160;20.802;2023-01-15T01:52:32;8.35;;;3.75;;
59314;SDS011;46521;50.160;20.802;2023-01-15T02:02:49;7.30;;;3.10;;
59314;SDS011;46521;50.160;20.802;2023-01-15T02:12:59;6.20;;;3.00;;
59314;SDS011;46521;50.160;20.802;2023-01-15T02:44:05;6.00;;;2.40;;
59314;SDS011;46521;50.160;20.802;2023-01-15T02:54:11;5.50;;;2.30;;
59314;SDS011;46521;50.160;20.802;2023-01-15T03:04:16;5.95;;;2.35;;
59314;SDS011;46521;50.160;20.802;2023-01-15T03:14:23;6.80;;;2.20;;
59314;SDS011;46521;50.160;20.802;2023-01-15T03:24:41;6.90;;;2.70;;
59314;SDS011;46521;50.160;20.802;2023-01-15T03:34:50;6.55;;;2.65;;
59314;SDS011;46521;50.160;20.802;2023-01-15T03:55:14;7.00;;;2.40;;
59314;SDS011;46521;50.160;20.802;2023-01-15T04:05:22;6.20;;;2.30;;
59314;SDS011;46521;50.160;20.802;2023-01-15T04:15:25;6.25;;;2.40;;
59314;SDS011;46521;50.160;20.802;2023-01-15T04:25:27;7.10;;;2.60;;
59314;SDS011;46521;50.160;20.802;2023-01-15T04:35:28;7.00;;;2.50;;
59314;SDS011;46521;50.160;20.802;2023-01-15T04:45:30;11.45;;;4.10;;
59314;SDS011;46521;50.160;20.802;2023-01-15T04:55:31;6.30;;;2.80;;
59314;SDS011;46521;50.160;20.802;2023-01-15T05:05:33;5.70;;;2.10;;
59314;SDS011;46521;50.160;20.802;2023-01-15T05:15:34;11.60;;;3.10;;
59314;SDS011;46521;50.160;20.802;2023-01-15T05:25:38;10.70;;;3.80;;
59314;SDS011;46521;50.160;20.802;2023-01-15T05:35:39;7.70;;;2.85;;
59314;SDS011;46521;50.160;20.802;2023-01-15T05:45:41;10.90;;;4.00;;
59314;SDS011;46521;50.160;20.802;2023-01-15T05:55:42;12.13;;;5.77;;
59314;SDS011;46521;50.160;20.802;2023-01-15T06:05:48;8.70;;;3.90;;
59314;SDS011;46521;50.160;20.802;2023-01-15T06:15:51;8.80;;;3.80;;
59314;SDS011;46521;50.160;20.802;2023-01-15T06:25:52;9.10;;;3.80;;
59314;SDS011;46521;50.160;20.802;2023-01-15T06:35:54;18.25;;;6.50;;
59314;SDS011;46521;50.160;20.802;2023-01-15T06:45:55;16.70;;;5.80;;
59314;SDS011;46521;50.160;20.802;2023-01-15T06:56:16;14.90;;;4.80;;
59314;SDS011;46521;50.160;20.802;2023-01-15T07:06:17;8.30;;;3.40;;
59314;SDS011;46521;50.160;20.802;2023-01-15T07:16:21;12.25;;;4.50;;
59314;SDS011;46521;50.160;20.802;2023-01-15T07:26:28;9.70;;;4.10;;
59314;SDS011;46521;50.160;20.802;2023-01-15T07:36:30;11.05;;;4.40;;
59314;SDS011;46521;50.160;20.802;2023-01-15T07:46:32;11.60;;;4.80;;
59314;SDS011;46521;50.160;20.802;2023-01-15T07:56:52;14.10;;;5.35;;
59314;SDS011;46521;50.160;20.802;2023-01-15T08:06:54;9.50;;;4.00;;
59314;SDS011;46521;50.160;20.802;2023-01-15T08:16:55;10.10;;;4.10;;
59314;SDS011;46521;50.160;20.802;2023-01-15T08:26:57;10.20;;;4.20;;
59314;SDS011;46521;50.160;20.802;2023-01-15T08:36:58;9.77;;;3.70;;
59314;SDS011;46521;50.160;20.802;2023-01-15T08:47:00;9.30;;;3.90;;
59314;SDS011;46521;50.160;20.802;2023-01-15T08:57:02;9.45;;;3.80;;
59314;SDS011;46521;50.160;20.802;2023-01-15T09:07:03;8.40;;;3.93;;
59314;SDS011;46521;50.160;20.802;2023-01-15T09:17:05;8.27;;;3.40;;
59314;SDS011;46521;50.160;20.802;2023-01-15T09:27:07;8.95;;;4.45;;
59314;SDS011;46521;50.160;20.802;2023-01-15T09:37:13;11.00;;;5.60;;
59314;SDS011;46521;50.160;20.802;2023-01-15T09:47:17;10.20;;;4.10;;
59314;SDS011;46521;50.160;20.802;2023-01-15T09:57:53;8.90;;;3.90;;
59314;SDS011;46521;50.160;20.802;2023-01-15T10:18:16;9.33;;;4.20;;
59314;SDS011;46521;50.160;20.802;2023-01-15T10:28:26;11.10;;;4.50;;
59314;SDS011;46521;50.160;20.802;2023-01-15T10:48:53;9.27;;;4.23;;
59314;SDS011;46521;50.160;20.802;2023-01-15T10:59:01;6.07;;;2.37;;
59314;SDS011;46521;50.160;20.802;2023-01-15T11:09:20;9.85;;;4.05;;
59314;SDS011;46521;50.160;20.802;2023-01-15T11:19:36;6.95;;;2.65;;
59314;SDS011;46521;50.160;20.802;2023-01-15T11:29:40;8.25;;;2.88;;
59314;SDS011;46521;50.160;20.802;2023-01-15T11:39:57;9.20;;;2.70;;
59314;SDS011;46521;50.160;20.802;2023-01-15T11:50:18;7.90;;;3.10;;
59314;SDS011;46521;50.160;20.802;2023-01-15T12:00:41;7.33;;;2.93;;
59314;SDS011;46521;50.160;20.802;2023-01-15T12:10:48;8.73;;;3.00;;
59314;SDS011;46521;50.160;20.802;2023-01-15T12:21:26;8.75;;;3.50;;
59314;SDS011;46521;50.160;20.802;2023-01-15T12:31:48;8.10;;;3.03;;
59314;SDS011;46521;50.160;20.802;2023-01-15T12:42:06;7.20;;;3.15;;
59314;SDS011;46521;50.160;20.802;2023-01-15T12:52:33;8.43;;;3.10;;
59314;SDS011;46521;50.160;20.802;2023-01-15T13:13:21;17.60;;;9.40;;
59314;SDS011;46521;50.160;20.802;2023-01-15T13:33:49;70.00;;;41.65;;
59314;SDS011;46521;50.160;20.802;2023-01-15T13:43:58;101.17;;;48.97;;
59314;SDS011;46521;50.160;20.802;2023-01-15T14:34:52;33.30;;;23.95;;
59314;SDS011;46521;50.160;20.802;2023-01-15T14:45:04;20.45;;;10.80;;
59314;SDS011;46521;50.160;20.802;2023-01-15T14:55:08;28.70;;;14.35;;
59314;SDS011;46521;50.160;20.802;2023-01-15T15:05:13;25.25;;;14.20;;
59314;SDS011;46521;50.160;20.802;2023-01-15T15:25:26;19.00;;;9.40;;
59314;SDS011;46521;50.160;20.802;2023-01-15T15:35:31;23.30;;;12.45;;
59314;SDS011;46521;50.160;20.802;2023-01-15T15:45:34;21.35;;;10.30;;
59314;SDS011;46521;50.160;20.802;2023-01-15T15:55:55;15.55;;;8.95;;
59314;SDS011;46521;50.160;20.802;2023-01-15T16:05:59;39.10;;;21.70;;
59314;SDS011;46521;50.160;20.802;2023-01-15T16:16:05;19.75;;;9.95;;
59314;SDS011;46521;50.160;20.802;2023-01-15T16:36:22;24.40;;;11.90;;
59314;SDS011;46521;50.160;20.802;2023-01-15T16:46:27;27.70;;;13.80;;
59314;SDS011;46521;50.160;20.802;2023-01-15T17:06:37;60.40;;;27.90;;
59314;SDS011;46521;50.160;20.802;2023-01-15T17:16:38;42.05;;;19.00;;
59314;SDS011;46521;50.160;20.802;2023-01-15T17:26:39;19.60;;;9.40;;
59314;SDS011;46521;50.160;20.802;2023-01-15T17:36:41;18.80;;;10.20;;
59314;SDS011;46521;50.160;20.802;2023-01-15T17:46:43;50.80;;;22.80;;
59314;SDS011;46521;50.160;20.802;2023-01-15T17:56:44;15.75;;;7.50;;
59314;SDS011;46521;50.160;20.802;2023-01-15T18:07:04;10.60;;;4.80;;
59314;SDS011;46521;50.160;20.802;2023-01-15T18:17:05;10.60;;;5.25;;
59314;SDS011;46521;50.160;20.802;2023-01-15T18:27:07;12.00;;;5.80;;
59314;SDS011;46521;50.160;20.802;2023-01-15T18:37:09;10.73;;;5.47;;
59314;SDS011;46521;50.160;20.802;2023-01-15T18:47:14;12.40;;;6.50;;
59314;SDS011;46521;50.160;20.802;2023-01-15T18:57:17;12.45;;;6.45;;
59314;SDS011;46521;50.160;20.802;2023-01-15T19:07:18;15.80;;;7.00;;
59314;SDS011;46521;50.160;20.802;2023-01-15T19:17:21;12.70;;;6.50;;
59314;SDS011;46521;50.160;20.802;2023-01-15T19:27:45;12.45;;;5.95;;
59314;SDS011;46521;50.160;20.802;2023-01-15T19:37:48;12.30;;;6.30;;
59314;SDS011;46521;50.160;20.802;2023-01-15T19:47:53;12.55;;;7.45;;
59314;SDS011;46521;50.160;20.802;2023-01-15T19:58:13;13.60;;;8.10;;
59314;SDS011;46521;50.160;20.802;2023-01-15T20:08:15;14.73;;;7.90;;
59314;SDS011;46521;50.160;20.802;2023-01-15T20:18:18;15.70;;;9.07;;
59314;SDS011;46521;50.160;20.802;2023-01-15T20:28:22;13.50;;;7.10;;
59314;SDS011;46521;50.160;20.802;2023-01-15T20:38:24;13.20;;;7.35;;
59314;SDS011;46521;50.160;20.802;2023-01-15T20:48:25;10.50;;;5.10;;
59314;SDS011;46521;50.160;20.802;2023-01-15T20:58:45;8.40;;;3.55;;
59314;SDS011;46521;50.160;20.802;2023-01-15T21:08:47;9.40;;;4.20;;
59314;SDS011;46521;50.160;20.802;2023-01-15T21:18:48;8.65;;;3.45;;
59314;SDS011;46521;50.160;20.802;2023-01-15T21:28:54;5.77;;;2.63;;
59314;SDS011;46521;50.160;20.802;2023-01-15T21:38:56;4.50;;;2.13;;
59314;SDS011;46521;50.160;20.802;2023-01-15T21:48:58;5.65;;;2.30;;
59314;SDS011;46521;50.160;20.802;2023-01-15T21:59:01;4.50;;;1.90;;
59314;SDS011;46521;50.160;20.802;2023-01-15T22:09:03;5.05;;;2.15;;
59314;SDS011;46521;50.160;20.802;2023-01-15T22:19:05;5.90;;;2.70;;
59314;SDS011;46521;50.160;20.802;2023-01-15T22:29:07;7.00;;;2.45;;
59314;SDS011;46521;50.160;20.802;2023-01-15T22:39:12;7.63;;;2.70;;
59314;SDS011;46521;50.160;20.802;2023-01-15T22:49:17;20.60;;;8.20;;
59314;SDS011;46521;50.160;20.802;2023-01-15T22:59:19;9.85;;;4.00;;
59314;SDS011;46521;50.160;20.802;2023-01-15T23:09:21;9.47;;;3.30;;
59314;SDS011;46521;50.160;20.802;2023-01-15T23:19:24;11.65;;;6.05;;
59314;SDS011;46521;50.160;20.802;2023-01-15T23:29:27;13.10;;;6.20;;
59314;SDS011;46521;50.160;20.802;2023-01-15T23:39:29;13.80;;;7.00;;
